sensor_id;sensor_type;location;lat;lon;timestamp;P1;durP1;ratioP1;P2;durP2;ratioP2
78887;SDS011;68276;49.326;8.690;2023-09-18T00:00:44;5.22;;;1.90;;
78887;SDS011;68276;49.326;8.690;2023-09-18T00:03:15;6.85;;;1.77;;
78887;SDS011;68276;49.326;8.690;2023-09-18T00:05:42;6.28;;;1.80;;
78887;SDS011;68276;49.326;8.690;2023-09-18T00:08:08;5.38;;;1.83;;
78887;SDS011;68276;49.326;8.690;2023-09-18T00:10:34;6.20;;;1.70;;
78887;SDS011;68276;49.326;8.690;2023-09-18T00:12:59;5.43;;;1.77;;
78887;SDS011;68276;49.326;8.690;2023-09-18T00:15:26;6.70;;;1.90;;
78887;SDS011;68276;49.326;8.690;2023-09-18T00:17:51;5.93;;;1.92;;
78887;SDS011;68276;49.326;8.690;2023-09-18T00:20:17;7.38;;;1.70;;
78887;SDS011;68276;49.326;8.690;2023-09-18T00:22:43;7.57;;;1.90;;
78887;SDS011;68276;49.326;8.690;2023-09-18T00:25:09;6.05;;;1.80;;
78887;SDS011;68276;49.326;8.690;2023-09-18T00:30:01;6.13;;;1.88;;
78887;SDS011;68276;49.326;8.690;2023-09-18T00:32:29;7.30;;;2.03;;
78887;SDS011;68276;49.326;8.690;2023-09-18T00:34:55;6.00;;;1.73;;
78887;SDS011;68276;49.326;8.690;2023-09-18T00:37:20;8.23;;;2.30;;
78887;SDS011;68276;49.326;8.690;2023-09-18T00:39:46;6.80;;;1.80;;
78887;SDS011;68276;49.326;8.690;2023-09-18T00:42:11;5.20;;;1.77;;
78887;SDS011;68276;49.326;8.690;2023-09-18T00:44:39;6.47;;;1.85;;
78887;SDS011;68276;49.326;8.690;2023-09-18T00:47:06;5.65;;;1.80;;
78887;SDS011;68276;49.326;8.690;2023-09-18T00:49:32;5.82;;;1.60;;
78887;SDS011;68276;49.326;8.690;2023-09-18T00:51:59;6.28;;;1.88;;
78887;SDS011;68276;49.326;8.690;2023-09-18T00:54:24;5.25;;;1.90;;
78887;SDS011;68276;49.326;8.690;2023-09-18T00:56:50;5.07;;;1.70;;
78887;SDS011;68276;49.326;8.690;2023-09-18T00:59:19;6.47;;;1.95;;
78887;SDS011;68276;49.326;8.690;2023-09-18T01:01:46;6.07;;;1.83;;
78887;SDS011;68276;49.326;8.690;2023-09-18T01:04:13;5.80;;;1.95;;
78887;SDS011;68276;49.326;8.690;2023-09-18T01:06:38;5.10;;;1.65;;
78887;SDS011;68276;49.326;8.690;2023-09-18T01:09:04;5.85;;;1.90;;
78887;SDS011;68276;49.326;8.690;2023-09-18T01:12:23;5.20;;;1.75;;
78887;SDS011;68276;49.326;8.690;2023-09-18T01:14:29;7.22;;;1.80;;
78887;SDS011;68276;49.326;8.690;2023-09-18T01:17:07;6.35;;;1.95;;
78887;SDS011;68276;49.326;8.690;2023-09-18T01:19:36;6.40;;;1.80;;
78887;SDS011;68276;49.326;8.690;2023-09-18T01:22:12;6.43;;;1.90;;
78887;SDS011;68276;49.326;8.690;2023-09-18T01:24:39;5.82;;;2.05;;
78887;SDS011;68276;49.326;8.690;2023-09-18T01:27:06;5.57;;;1.90;;
78887;SDS011;68276;49.326;8.690;2023-09-18T01:29:35;6.85;;;2.05;;
78887;SDS011;68276;49.326;8.690;2023-09-18T01:32:01;6.95;;;2.15;;
78887;SDS011;68276;49.326;8.690;2023-09-18T01:34:32;6.72;;;2.25;;
78887;SDS011;68276;49.326;8.690;2023-09-18T01:37:12;7.13;;;2.10;;
78887;SDS011;68276;49.326;8.690;2023-09-18T01:39:39;5.93;;;1.95;;
78887;SDS011;68276;49.326;8.690;2023-09-18T01:42:06;6.53;;;1.90;;
78887;SDS011;68276;49.326;8.690;2023-09-18T01:44:32;6.30;;;2.00;;
78887;SDS011;68276;49.326;8.690;2023-09-18T01:46:59;7.05;;;1.92;;
78887;SDS011;68276;49.326;8.690;2023-09-18T01:49:31;6.30;;;1.83;;
78887;SDS011;68276;49.326;8.690;2023-09-18T01:51:58;6.22;;;2.10;;
78887;SDS011;68276;49.326;8.690;2023-09-18T01:54:24;5.32;;;1.73;;
78887;SDS011;68276;49.326;8.690;2023-09-18T01:56:50;5.47;;;1.90;;
78887;SDS011;68276;49.326;8.690;2023-09-18T01:59:16;6.85;;;1.88;;
78887;SDS011;68276;49.326;8.690;2023-09-18T02:01:42;6.28;;;1.95;;
78887;SDS011;68276;49.326;8.690;2023-09-18T02:04:08;6.05;;;2.03;;
78887;SDS011;68276;49.326;8.690;2023-09-18T02:06:33;6.95;;;2.30;;
78887;SDS011;68276;49.326;8.690;2023-09-18T02:11:25;9.05;;;1.95;;
78887;SDS011;68276;49.326;8.690;2023-09-18T02:13:51;5.40;;;2.00;;
78887;SDS011;68276;49.326;8.690;2023-09-18T02:16:16;6.40;;;2.20;;
78887;SDS011;68276;49.326;8.690;2023-09-18T02:18:41;5.73;;;2.13;;
78887;SDS011;68276;49.326;8.690;2023-09-18T02:21:08;5.43;;;1.70;;
78887;SDS011;68276;49.326;8.690;2023-09-18T02:23:33;6.63;;;1.80;;
78887;SDS011;68276;49.326;8.690;2023-09-18T02:25:59;4.50;;;1.70;;
78887;SDS011;68276;49.326;8.690;2023-09-18T02:28:24;6.22;;;2.10;;
78887;SDS011;68276;49.326;8.690;2023-09-18T02:30:50;5.72;;;1.80;;
78887;SDS011;68276;49.326;8.690;2023-09-18T02:33:16;6.25;;;2.10;;
78887;SDS011;68276;49.326;8.690;2023-09-18T02:38:08;7.85;;;1.77;;
78887;SDS011;68276;49.326;8.690;2023-09-18T02:40:33;6.60;;;2.17;;
78887;SDS011;68276;49.326;8.690;2023-09-18T02:42:59;7.87;;;2.10;;
78887;SDS011;68276;49.326;8.690;2023-09-18T02:45:24;5.10;;;1.75;;
78887;SDS011;68276;49.326;8.690;2023-09-18T02:47:49;8.77;;;2.00;;
78887;SDS011;68276;49.326;8.690;2023-09-18T02:52:40;7.23;;;1.80;;
78887;SDS011;68276;49.326;8.690;2023-09-18T02:55:06;7.68;;;2.00;;
78887;SDS011;68276;49.326;8.690;2023-09-18T02:57:32;10.05;;;2.15;;
78887;SDS011;68276;49.326;8.690;2023-09-18T02:59:57;6.83;;;2.07;;
78887;SDS011;68276;49.326;8.690;2023-09-18T03:02:23;6.47;;;2.00;;
78887;SDS011;68276;49.326;8.690;2023-09-18T03:04:49;6.18;;;1.75;;
78887;SDS011;68276;49.326;8.690;2023-09-18T03:07:14;5.93;;;1.90;;
78887;SDS011;68276;49.326;8.690;2023-09-18T03:09:41;8.38;;;2.03;;
78887;SDS011;68276;49.326;8.690;2023-09-18T03:12:06;5.75;;;1.77;;
78887;SDS011;68276;49.326;8.690;2023-09-18T03:14:32;7.03;;;1.67;;
78887;SDS011;68276;49.326;8.690;2023-09-18T03:16:57;8.60;;;2.05;;
78887;SDS011;68276;49.326;8.690;2023-09-18T03:19:23;5.63;;;1.80;;
78887;SDS011;68276;49.326;8.690;2023-09-18T03:21:49;9.30;;;1.95;;
78887;SDS011;68276;49.326;8.690;2023-09-18T03:24:15;7.43;;;1.90;;
78887;SDS011;68276;49.326;8.690;2023-09-18T03:26:40;6.90;;;2.07;;
78887;SDS011;68276;49.326;8.690;2023-09-18T03:29:05;8.20;;;2.00;;
78887;SDS011;68276;49.326;8.690;2023-09-18T03:31:31;7.23;;;2.00;;
78887;SDS011;68276;49.326;8.690;2023-09-18T03:33:56;6.70;;;1.83;;
78887;SDS011;68276;49.326;8.690;2023-09-18T03:38:48;11.20;;;3.47;;
78887;SDS011;68276;49.326;8.690;2023-09-18T03:43:39;7.90;;;2.00;;
78887;SDS011;68276;49.326;8.690;2023-09-18T03:46:05;10.02;;;2.65;;
78887;SDS011;68276;49.326;8.690;2023-09-18T03:48:31;7.53;;;2.10;;
78887;SDS011;68276;49.326;8.690;2023-09-18T03:51:02;10.23;;;2.47;;
78887;SDS011;68276;49.326;8.690;2023-09-18T03:53:28;10.13;;;2.35;;
78887;SDS011;68276;49.326;8.690;2023-09-18T03:58:19;13.70;;;2.67;;
78887;SDS011;68276;49.326;8.690;2023-09-18T04:03:10;9.00;;;2.08;;
78887;SDS011;68276;49.326;8.690;2023-09-18T04:05:35;10.53;;;2.97;;
78887;SDS011;68276;49.326;8.690;2023-09-18T04:10:27;8.45;;;2.35;;
78887;SDS011;68276;49.326;8.690;2023-09-18T04:15:17;12.17;;;2.30;;
78887;SDS011;68276;49.326;8.690;2023-09-18T04:17:45;10.10;;;2.80;;
78887;SDS011;68276;49.326;8.690;2023-09-18T04:22:42;11.32;;;2.35;;
78887;SDS011;68276;49.326;8.690;2023-09-18T04:25:09;9.93;;;2.42;;
78887;SDS011;68276;49.326;8.690;2023-09-18T04:29:59;9.10;;;2.33;;
78887;SDS011;68276;49.326;8.690;2023-09-18T04:32:27;7.10;;;2.00;;
78887;SDS011;68276;49.326;8.690;2023-09-18T04:34:52;13.75;;;2.28;;
78887;SDS011;68276;49.326;8.690;2023-09-18T04:39:43;11.02;;;2.33;;
78887;SDS011;68276;49.326;8.690;2023-09-18T04:42:09;10.38;;;1.92;;
78887;SDS011;68276;49.326;8.690;2023-09-18T04:47:00;9.27;;;1.97;;
78887;SDS011;68276;49.326;8.690;2023-09-18T04:51:51;10.10;;;1.95;;
78887;SDS011;68276;49.326;8.690;2023-09-18T04:56:41;8.53;;;2.43;;
78887;SDS011;68276;49.326;8.690;2023-09-18T05:01:32;12.00;;;2.40;;
78887;SDS011;68276;49.326;8.690;2023-09-18T05:06:22;10.23;;;2.30;;
78887;SDS011;68276;49.326;8.690;2023-09-18T05:11:13;12.40;;;2.20;;
78887;SDS011;68276;49.326;8.690;2023-09-18T05:13:39;8.93;;;1.98;;
78887;SDS011;68276;49.326;8.690;2023-09-18T05:18:29;9.13;;;1.90;;
78887;SDS011;68276;49.326;8.690;2023-09-18T05:20:55;9.95;;;2.92;;
78887;SDS011;68276;49.326;8.690;2023-09-18T05:25:46;10.13;;;1.95;;
78887;SDS011;68276;49.326;8.690;2023-09-18T05:30:36;10.40;;;1.77;;
78887;SDS011;68276;49.326;8.690;2023-09-18T05:33:05;8.07;;;1.88;;
78887;SDS011;68276;49.326;8.690;2023-09-18T05:35:36;7.95;;;1.83;;
78887;SDS011;68276;49.326;8.690;2023-09-18T05:40:30;7.40;;;1.60;;
78887;SDS011;68276;49.326;8.690;2023-09-18T05:42:55;7.55;;;1.63;;
78887;SDS011;68276;49.326;8.690;2023-09-18T05:45:21;8.80;;;1.65;;
78887;SDS011;68276;49.326;8.690;2023-09-18T05:50:14;7.47;;;2.13;;
78887;SDS011;68276;49.326;8.690;2023-09-18T05:52:41;8.07;;;1.60;;
78887;SDS011;68276;49.326;8.690;2023-09-18T05:55:07;10.68;;;1.85;;
78887;SDS011;68276;49.326;8.690;2023-09-18T05:59:59;9.75;;;2.30;;
78887;SDS011;68276;49.326;8.690;2023-09-18T06:04:54;10.30;;;2.03;;
78887;SDS011;68276;49.326;8.690;2023-09-18T06:07:22;9.45;;;2.10;;
78887;SDS011;68276;49.326;8.690;2023-09-18T06:12:13;10.50;;;2.27;;
78887;SDS011;68276;49.326;8.690;2023-09-18T06:17:04;9.33;;;2.57;;
78887;SDS011;68276;49.326;8.690;2023-09-18T06:19:31;8.25;;;1.92;;
78887;SDS011;68276;49.326;8.690;2023-09-18T06:21:58;10.52;;;2.28;;
78887;SDS011;68276;49.326;8.690;2023-09-18T06:26:48;10.57;;;2.00;;
78887;SDS011;68276;49.326;8.690;2023-09-18T06:29:15;10.10;;;2.50;;
78887;SDS011;68276;49.326;8.690;2023-09-18T06:34:06;11.53;;;2.50;;
78887;SDS011;68276;49.326;8.690;2023-09-18T06:38:57;10.40;;;1.90;;
78887;SDS011;68276;49.326;8.690;2023-09-18T06:41:23;12.05;;;2.47;;
78887;SDS011;68276;49.326;8.690;2023-09-18T06:46:14;8.50;;;2.17;;
78887;SDS011;68276;49.326;8.690;2023-09-18T06:51:04;12.50;;;2.17;;
78887;SDS011;68276;49.326;8.690;2023-09-18T06:53:31;9.57;;;2.28;;
78887;SDS011;68276;49.326;8.690;2023-09-18T06:58:22;10.03;;;1.80;;
78887;SDS011;68276;49.326;8.690;2023-09-18T07:03:15;9.13;;;1.60;;
78887;SDS011;68276;49.326;8.690;2023-09-18T07:08:08;12.07;;;1.95;;
78887;SDS011;68276;49.326;8.690;2023-09-18T07:10:36;8.95;;;2.30;;
78887;SDS011;68276;49.326;8.690;2023-09-18T07:15:27;7.45;;;2.75;;
78887;SDS011;68276;49.326;8.690;2023-09-18T07:20:18;6.40;;;1.90;;
78887;SDS011;68276;49.326;8.690;2023-09-18T07:25:12;8.65;;;2.10;;
78887;SDS011;68276;49.326;8.690;2023-09-18T07:32:35;10.40;;;2.25;;
78887;SDS011;68276;49.326;8.690;2023-09-18T07:37:26;6.37;;;2.13;;
78887;SDS011;68276;49.326;8.690;2023-09-18T07:42:17;9.77;;;2.75;;
78887;SDS011;68276;49.326;8.690;2023-09-18T07:47:08;5.93;;;1.70;;
78887;SDS011;68276;49.326;8.690;2023-09-18T07:51:59;9.30;;;2.00;;
78887;SDS011;68276;49.326;8.690;2023-09-18T07:54:25;10.20;;;1.60;;
78887;SDS011;68276;49.326;8.690;2023-09-18T07:59:16;6.70;;;1.30;;
78887;SDS011;68276;49.326;8.690;2023-09-18T08:04:07;7.30;;;1.43;;
78887;SDS011;68276;49.326;8.690;2023-09-18T08:08:57;7.63;;;2.13;;
78887;SDS011;68276;49.326;8.690;2023-09-18T08:13:48;8.85;;;1.30;;
78887;SDS011;68276;49.326;8.690;2023-09-18T08:18:39;6.50;;;1.70;;
78887;SDS011;68276;49.326;8.690;2023-09-18T08:21:06;7.82;;;1.90;;
78887;SDS011;68276;49.326;8.690;2023-09-18T08:23:34;5.35;;;1.30;;
78887;SDS011;68276;49.326;8.690;2023-09-18T08:26:00;7.30;;;1.17;;
78887;SDS011;68276;49.326;8.690;2023-09-18T08:30:51;6.63;;;1.27;;
78887;SDS011;68276;49.326;8.690;2023-09-18T08:35:42;4.90;;;1.10;;
78887;SDS011;68276;49.326;8.690;2023-09-18T08:38:09;5.13;;;1.00;;
78887;SDS011;68276;49.326;8.690;2023-09-18T08:43:02;5.00;;;1.10;;
78887;SDS011;68276;49.326;8.690;2023-09-18T08:45:38;2.65;;;0.85;;
78887;SDS011;68276;49.326;8.690;2023-09-18T08:48:08;6.88;;;1.63;;
78887;SDS011;68276;49.326;8.690;2023-09-18T08:53:00;7.43;;;1.00;;
78887;SDS011;68276;49.326;8.690;2023-09-18T08:57:52;5.25;;;1.10;;
78887;SDS011;68276;49.326;8.690;2023-09-18T09:00:19;6.32;;;1.20;;
78887;SDS011;68276;49.326;8.690;2023-09-18T09:05:10;7.47;;;1.00;;
78887;SDS011;68276;49.326;8.690;2023-09-18T09:10:00;7.00;;;1.20;;
78887;SDS011;68276;49.326;8.690;2023-09-18T09:15:10;3.90;;;0.95;;
78887;SDS011;68276;49.326;8.690;2023-09-18T09:20:08;5.03;;;1.27;;
78887;SDS011;68276;49.326;8.690;2023-09-18T09:22:36;5.65;;;0.98;;
78887;SDS011;68276;49.326;8.690;2023-09-18T09:27:27;5.75;;;1.20;;
78887;SDS011;68276;49.326;8.690;2023-09-18T09:32:24;4.50;;;0.98;;
78887;SDS011;68276;49.326;8.690;2023-09-18T09:34:59;3.38;;;0.88;;
78887;SDS011;68276;49.326;8.690;2023-09-18T09:37:31;6.20;;;1.02;;
78887;SDS011;68276;49.326;8.690;2023-09-18T09:42:37;7.43;;;1.15;;
78887;SDS011;68276;49.326;8.690;2023-09-18T09:45:10;3.40;;;0.85;;
78887;SDS011;68276;49.326;8.690;2023-09-18T09:47:38;3.80;;;0.90;;
78887;SDS011;68276;49.326;8.690;2023-09-18T09:52:56;5.13;;;1.10;;
78887;SDS011;68276;49.326;8.690;2023-09-18T09:57:54;3.70;;;0.90;;
78887;SDS011;68276;49.326;8.690;2023-09-18T10:02:59;3.67;;;0.90;;
78887;SDS011;68276;49.326;8.690;2023-09-18T10:05:34;4.07;;;0.88;;
78887;SDS011;68276;49.326;8.690;2023-09-18T10:08:06;2.60;;;0.85;;
78887;SDS011;68276;49.326;8.690;2023-09-18T10:10:35;3.70;;;1.00;;
78887;SDS011;68276;49.326;8.690;2023-09-18T10:13:04;3.03;;;0.73;;
78887;SDS011;68276;49.326;8.690;2023-09-18T10:15:34;3.90;;;0.80;;
78887;SDS011;68276;49.326;8.690;2023-09-18T10:18:07;5.93;;;1.10;;
78887;SDS011;68276;49.326;8.690;2023-09-18T10:20:42;4.57;;;1.08;;
78887;SDS011;68276;49.326;8.690;2023-09-18T10:23:12;5.25;;;1.00;;
78887;SDS011;68276;49.326;8.690;2023-09-18T10:25:55;3.47;;;0.85;;
78887;SDS011;68276;49.326;8.690;2023-09-18T10:28:25;6.82;;;1.20;;
78887;SDS011;68276;49.326;8.690;2023-09-18T10:30:52;4.28;;;0.90;;
78887;SDS011;68276;49.326;8.690;2023-09-18T10:33:22;7.25;;;1.20;;
78887;SDS011;68276;49.326;8.690;2023-09-18T10:38:13;4.80;;;1.15;;
78887;SDS011;68276;49.326;8.690;2023-09-18T10:40:40;5.38;;;0.90;;
78887;SDS011;68276;49.326;8.690;2023-09-18T10:43:08;5.55;;;0.88;;
78887;SDS011;68276;49.326;8.690;2023-09-18T10:45:36;4.45;;;0.90;;
78887;SDS011;68276;49.326;8.690;2023-09-18T10:48:05;4.80;;;0.98;;
78887;SDS011;68276;49.326;8.690;2023-09-18T10:50:33;5.43;;;1.00;;
78887;SDS011;68276;49.326;8.690;2023-09-18T10:55:25;7.47;;;1.47;;
78887;SDS011;68276;49.326;8.690;2023-09-18T10:57:52;5.20;;;1.70;;
78887;SDS011;68276;49.326;8.690;2023-09-18T11:00:24;5.10;;;1.25;;
78887;SDS011;68276;49.326;8.690;2023-09-18T11:02:53;4.25;;;0.95;;
78887;SDS011;68276;49.326;8.690;2023-09-18T11:05:33;4.93;;;1.00;;
78887;SDS011;68276;49.326;8.690;2023-09-18T11:11:10;5.35;;;1.00;;
78887;SDS011;68276;49.326;8.690;2023-09-18T11:13:39;4.18;;;1.02;;
78887;SDS011;68276;49.326;8.690;2023-09-18T11:16:51;3.63;;;0.70;;
78887;SDS011;68276;49.326;8.690;2023-09-18T11:18:52;3.38;;;0.95;;
78887;SDS011;68276;49.326;8.690;2023-09-18T11:21:23;4.82;;;1.00;;
78887;SDS011;68276;49.326;8.690;2023-09-18T11:23:57;5.57;;;1.13;;
78887;SDS011;68276;49.326;8.690;2023-09-18T11:26:44;1.50;;;0.60;;
78887;SDS011;68276;49.326;8.690;2023-09-18T11:29:11;5.40;;;0.85;;
78887;SDS011;68276;49.326;8.690;2023-09-18T11:34:29;5.75;;;0.80;;
78887;SDS011;68276;49.326;8.690;2023-09-18T11:37:18;4.50;;;0.80;;
78887;SDS011;68276;49.326;8.690;2023-09-18T11:39:44;5.57;;;0.93;;
78887;SDS011;68276;49.326;8.690;2023-09-18T11:42:17;8.52;;;1.10;;
78887;SDS011;68276;49.326;8.690;2023-09-18T11:44:47;3.75;;;0.80;;
78887;SDS011;68276;49.326;8.690;2023-09-18T11:47:15;6.78;;;1.05;;
78887;SDS011;68276;49.326;8.690;2023-09-18T11:52:23;4.95;;;0.82;;
78887;SDS011;68276;49.326;8.690;2023-09-18T11:54:50;2.28;;;0.63;;
78887;SDS011;68276;49.326;8.690;2023-09-18T11:57:16;5.60;;;1.00;;
78887;SDS011;68276;49.326;8.690;2023-09-18T11:59:43;6.32;;;1.08;;
78887;SDS011;68276;49.326;8.690;2023-09-18T12:02:11;3.60;;;1.00;;
78887;SDS011;68276;49.326;8.690;2023-09-18T12:04:45;4.53;;;0.80;;
78887;SDS011;68276;49.326;8.690;2023-09-18T12:07:11;2.53;;;0.80;;
78887;SDS011;68276;49.326;8.690;2023-09-18T12:09:37;2.70;;;0.75;;
78887;SDS011;68276;49.326;8.690;2023-09-18T12:12:05;4.07;;;1.00;;
78887;SDS011;68276;49.326;8.690;2023-09-18T12:14:31;5.40;;;0.90;;
78887;SDS011;68276;49.326;8.690;2023-09-18T12:17:01;4.38;;;0.95;;
78887;SDS011;68276;49.326;8.690;2023-09-18T12:19:28;5.35;;;1.10;;
78887;SDS011;68276;49.326;8.690;2023-09-18T12:21:55;3.53;;;1.05;;
78887;SDS011;68276;49.326;8.690;2023-09-18T12:24:24;4.50;;;0.90;;
78887;SDS011;68276;49.326;8.690;2023-09-18T12:26:51;3.67;;;0.80;;
78887;SDS011;68276;49.326;8.690;2023-09-18T12:29:17;3.70;;;1.00;;
78887;SDS011;68276;49.326;8.690;2023-09-18T12:31:43;3.13;;;0.95;;
78887;SDS011;68276;49.326;8.690;2023-09-18T12:34:15;4.68;;;0.88;;
78887;SDS011;68276;49.326;8.690;2023-09-18T12:36:46;5.57;;;1.15;;
78887;SDS011;68276;49.326;8.690;2023-09-18T12:39:12;4.18;;;0.90;;
78887;SDS011;68276;49.326;8.690;2023-09-18T12:41:41;2.88;;;0.70;;
78887;SDS011;68276;49.326;8.690;2023-09-18T12:44:08;3.67;;;0.90;;
78887;SDS011;68276;49.326;8.690;2023-09-18T12:46:34;5.80;;;0.60;;
78887;SDS011;68276;49.326;8.690;2023-09-18T12:49:04;3.85;;;0.80;;
78887;SDS011;68276;49.326;8.690;2023-09-18T12:51:56;4.30;;;0.88;;
78887;SDS011;68276;49.326;8.690;2023-09-18T12:54:38;5.10;;;1.13;;
78887;SDS011;68276;49.326;8.690;2023-09-18T12:57:05;2.85;;;0.70;;
78887;SDS011;68276;49.326;8.690;2023-09-18T12:59:32;3.65;;;0.75;;
78887;SDS011;68276;49.326;8.690;2023-09-18T13:01:58;5.28;;;0.85;;
78887;SDS011;68276;49.326;8.690;2023-09-18T13:04:24;5.35;;;1.20;;
78887;SDS011;68276;49.326;8.690;2023-09-18T13:07:06;5.43;;;1.00;;
78887;SDS011;68276;49.326;8.690;2023-09-18T13:09:34;3.88;;;0.70;;
78887;SDS011;68276;49.326;8.690;2023-09-18T13:12:00;2.88;;;0.70;;
78887;SDS011;68276;49.326;8.690;2023-09-18T13:14:26;2.50;;;0.65;;
78887;SDS011;68276;49.326;8.690;2023-09-18T13:16:52;2.80;;;0.80;;
78887;SDS011;68276;49.326;8.690;2023-09-18T13:19:17;4.60;;;0.80;;
78887;SDS011;68276;49.326;8.690;2023-09-18T13:21:48;3.05;;;0.75;;
78887;SDS011;68276;49.326;8.690;2023-09-18T13:24:29;2.97;;;0.85;;
78887;SDS011;68276;49.326;8.690;2023-09-18T13:26:56;6.22;;;0.90;;
78887;SDS011;68276;49.326;8.690;2023-09-18T13:29:23;5.15;;;1.15;;
78887;SDS011;68276;49.326;8.690;2023-09-18T13:31:49;3.38;;;0.90;;
78887;SDS011;68276;49.326;8.690;2023-09-18T13:34:18;2.25;;;0.77;;
78887;SDS011;68276;49.326;8.690;2023-09-18T13:36:47;2.47;;;0.70;;
78887;SDS011;68276;49.326;8.690;2023-09-18T13:39:12;3.00;;;0.80;;
78887;SDS011;68276;49.326;8.690;2023-09-18T13:41:41;3.67;;;0.90;;
78887;SDS011;68276;49.326;8.690;2023-09-18T13:44:07;4.70;;;0.80;;
78887;SDS011;68276;49.326;8.690;2023-09-18T13:46:33;2.13;;;0.65;;
78887;SDS011;68276;49.326;8.690;2023-09-18T13:49:01;3.42;;;0.70;;
78887;SDS011;68276;49.326;8.690;2023-09-18T13:51:28;3.80;;;1.05;;
78887;SDS011;68276;49.326;8.690;2023-09-18T13:53:54;5.07;;;0.93;;
78887;SDS011;68276;49.326;8.690;2023-09-18T13:56:21;8.23;;;1.17;;
78887;SDS011;68276;49.326;8.690;2023-09-18T13:58:46;3.85;;;0.90;;
78887;SDS011;68276;49.326;8.690;2023-09-18T14:01:12;4.22;;;0.98;;
78887;SDS011;68276;49.326;8.690;2023-09-18T14:03:40;3.03;;;0.80;;
78887;SDS011;68276;49.326;8.690;2023-09-18T14:06:06;4.20;;;0.85;;
78887;SDS011;68276;49.326;8.690;2023-09-18T14:08:32;8.45;;;1.20;;
78887;SDS011;68276;49.326;8.690;2023-09-18T14:10:58;3.55;;;0.90;;
78887;SDS011;68276;49.326;8.690;2023-09-18T14:13:23;2.67;;;0.80;;
78887;SDS011;68276;49.326;8.690;2023-09-18T14:15:49;5.13;;;1.10;;
78887;SDS011;68276;49.326;8.690;2023-09-18T14:18:14;3.10;;;0.80;;
78887;SDS011;68276;49.326;8.690;2023-09-18T14:20:39;6.37;;;1.10;;
78887;SDS011;68276;49.326;8.690;2023-09-18T14:23:06;4.00;;;0.88;;
78887;SDS011;68276;49.326;8.690;2023-09-18T14:25:31;2.70;;;0.90;;
78887;SDS011;68276;49.326;8.690;2023-09-18T14:27:56;5.55;;;1.13;;
78887;SDS011;68276;49.326;8.690;2023-09-18T14:30:22;3.83;;;0.80;;
78887;SDS011;68276;49.326;8.690;2023-09-18T14:32:51;3.15;;;1.02;;
78887;SDS011;68276;49.326;8.690;2023-09-18T14:35:17;4.05;;;0.80;;
78887;SDS011;68276;49.326;8.690;2023-09-18T14:37:43;5.60;;;1.00;;
78887;SDS011;68276;49.326;8.690;2023-09-18T14:40:08;3.30;;;0.90;;
78887;SDS011;68276;49.326;8.690;2023-09-18T14:42:36;5.25;;;1.05;;
78887;SDS011;68276;49.326;8.690;2023-09-18T14:45:02;4.82;;;0.93;;
78887;SDS011;68276;49.326;8.690;2023-09-18T14:47:27;3.63;;;1.20;;
78887;SDS011;68276;49.326;8.690;2023-09-18T14:49:53;2.95;;;1.00;;
78887;SDS011;68276;49.326;8.690;2023-09-18T14:52:20;6.03;;;1.20;;
78887;SDS011;68276;49.326;8.690;2023-09-18T14:54:48;4.53;;;1.00;;
78887;SDS011;68276;49.326;8.690;2023-09-18T14:57:14;3.83;;;1.00;;
78887;SDS011;68276;49.326;8.690;2023-09-18T14:59:39;4.93;;;1.20;;
78887;SDS011;68276;49.326;8.690;2023-09-18T15:02:07;6.15;;;1.10;;
78887;SDS011;68276;49.326;8.690;2023-09-18T15:04:33;6.13;;;0.98;;
78887;SDS011;68276;49.326;8.690;2023-09-18T15:06:59;5.50;;;1.00;;
78887;SDS011;68276;49.326;8.690;2023-09-18T15:09:25;4.72;;;0.90;;
78887;SDS011;68276;49.326;8.690;2023-09-18T15:11:50;4.77;;;1.10;;
78887;SDS011;68276;49.326;8.690;2023-09-18T15:14:15;5.00;;;1.00;;
78887;SDS011;68276;49.326;8.690;2023-09-18T15:16:41;4.30;;;1.07;;
78887;SDS011;68276;49.326;8.690;2023-09-18T15:19:06;5.47;;;1.43;;
78887;SDS011;68276;49.326;8.690;2023-09-18T15:21:35;2.72;;;0.90;;
78887;SDS011;68276;49.326;8.690;2023-09-18T15:24:01;7.05;;;1.17;;
78887;SDS011;68276;49.326;8.690;2023-09-18T15:26:27;2.58;;;1.05;;
78887;SDS011;68276;49.326;8.690;2023-09-18T15:28:52;4.03;;;1.03;;
78887;SDS011;68276;49.326;8.690;2023-09-18T15:31:17;3.03;;;0.90;;
78887;SDS011;68276;49.326;8.690;2023-09-18T15:33:43;5.47;;;1.10;;
78887;SDS011;68276;49.326;8.690;2023-09-18T15:36:10;2.17;;;0.80;;
78887;SDS011;68276;49.326;8.690;2023-09-18T15:38:36;4.78;;;1.10;;
78887;SDS011;68276;49.326;8.690;2023-09-18T15:41:02;6.80;;;1.10;;
78887;SDS011;68276;49.326;8.690;2023-09-18T15:43:27;5.60;;;1.13;;
78887;SDS011;68276;49.326;8.690;2023-09-18T15:45:54;4.80;;;1.25;;
78887;SDS011;68276;49.326;8.690;2023-09-18T15:48:22;3.45;;;0.90;;
78887;SDS011;68276;49.326;8.690;2023-09-18T15:50:48;4.85;;;1.20;;
78887;SDS011;68276;49.326;8.690;2023-09-18T15:53:13;3.53;;;1.00;;
78887;SDS011;68276;49.326;8.690;2023-09-18T15:55:38;3.55;;;0.80;;
78887;SDS011;68276;49.326;8.690;2023-09-18T15:58:04;3.25;;;1.00;;
78887;SDS011;68276;49.326;8.690;2023-09-18T16:00:29;6.40;;;0.90;;
78887;SDS011;68276;49.326;8.690;2023-09-18T16:02:56;5.78;;;0.98;;
78887;SDS011;68276;49.326;8.690;2023-09-18T16:05:24;5.65;;;1.05;;
78887;SDS011;68276;49.326;8.690;2023-09-18T16:07:51;5.40;;;0.95;;
78887;SDS011;68276;49.326;8.690;2023-09-18T16:10:23;4.55;;;1.25;;
78887;SDS011;68276;49.326;8.690;2023-09-18T16:12:48;4.05;;;1.30;;
78887;SDS011;68276;49.326;8.690;2023-09-18T16:15:13;5.53;;;1.00;;
78887;SDS011;68276;49.326;8.690;2023-09-18T16:17:39;3.15;;;0.95;;
78887;SDS011;68276;49.326;8.690;2023-09-18T16:20:04;7.00;;;1.10;;
78887;SDS011;68276;49.326;8.690;2023-09-18T16:22:31;3.70;;;1.10;;
78887;SDS011;68276;49.326;8.690;2023-09-18T16:24:57;4.13;;;1.15;;
78887;SDS011;68276;49.326;8.690;2023-09-18T16:27:24;4.82;;;1.10;;
78887;SDS011;68276;49.326;8.690;2023-09-18T16:29:50;3.67;;;0.93;;
78887;SDS011;68276;49.326;8.690;2023-09-18T16:32:16;4.82;;;1.00;;
78887;SDS011;68276;49.326;8.690;2023-09-18T16:34:41;3.27;;;1.00;;
78887;SDS011;68276;49.326;8.690;2023-09-18T16:37:07;4.22;;;0.85;;
78887;SDS011;68276;49.326;8.690;2023-09-18T16:39:32;4.73;;;0.90;;
78887;SDS011;68276;49.326;8.690;2023-09-18T16:41:57;3.23;;;0.93;;
78887;SDS011;68276;49.326;8.690;2023-09-18T16:44:23;4.93;;;1.10;;
78887;SDS011;68276;49.326;8.690;2023-09-18T16:46:49;4.78;;;0.85;;
78887;SDS011;68276;49.326;8.690;2023-09-18T16:49:15;5.07;;;1.13;;
78887;SDS011;68276;49.326;8.690;2023-09-18T16:51:47;5.60;;;1.30;;
78887;SDS011;68276;49.326;8.690;2023-09-18T16:54:12;5.55;;;1.35;;
78887;SDS011;68276;49.326;8.690;2023-09-18T16:56:38;3.97;;;0.95;;
78887;SDS011;68276;49.326;8.690;2023-09-18T16:59:06;2.40;;;1.00;;
78887;SDS011;68276;49.326;8.690;2023-09-18T17:01:32;3.38;;;0.80;;
78887;SDS011;68276;49.326;8.690;2023-09-18T17:03:57;5.15;;;1.10;;
78887;SDS011;68276;49.326;8.690;2023-09-18T17:06:23;7.38;;;1.30;;
78887;SDS011;68276;49.326;8.690;2023-09-18T17:08:48;5.35;;;1.17;;
78887;SDS011;68276;49.326;8.690;2023-09-18T17:11:14;5.45;;;1.25;;
78887;SDS011;68276;49.326;8.690;2023-09-18T17:13:41;5.47;;;1.00;;
78887;SDS011;68276;49.326;8.690;2023-09-18T17:16:07;5.03;;;1.25;;
78887;SDS011;68276;49.326;8.690;2023-09-18T17:18:33;3.50;;;1.00;;
78887;SDS011;68276;49.326;8.690;2023-09-18T17:20:59;4.65;;;1.00;;
78887;SDS011;68276;49.326;8.690;2023-09-18T17:23:25;3.13;;;0.93;;
78887;SDS011;68276;49.326;8.690;2023-09-18T17:25:50;3.28;;;1.00;;
78887;SDS011;68276;49.326;8.690;2023-09-18T17:28:16;6.68;;;1.27;;
78887;SDS011;68276;49.326;8.690;2023-09-18T17:30:42;6.78;;;1.55;;
78887;SDS011;68276;49.326;8.690;2023-09-18T17:33:08;4.88;;;1.55;;
78887;SDS011;68276;49.326;8.690;2023-09-18T17:35:33;4.30;;;1.10;;
78887;SDS011;68276;49.326;8.690;2023-09-18T17:37:59;4.15;;;1.02;;